sensor_id;sensor_type;location;lat;lon;timestamp;P1;durP1;ratioP1;P2;durP2;ratioP2
54923;SDS011;40825;52.270;20.984;2023-09-19T00:00:21;14.50;;;8.80;;
54923;SDS011;40825;52.270;20.984;2023-09-19T00:03:10;14.00;;;8.40;;
54923;SDS011;40825;52.270;20.984;2023-09-19T00:05:37;13.60;;;8.50;;
54923;SDS011;40825;52.270;20.984;2023-09-19T00:08:03;13.90;;;8.70;;
54923;SDS011;40825;52.270;20.984;2023-09-19T00:10:29;12.60;;;8.20;;
54923;SDS011;40825;52.270;20.984;2023-09-19T00:12:56;13.70;;;8.40;;
54923;SDS011;40825;52.270;20.984;2023-09-19T00:15:24;15.00;;;8.20;;
54923;SDS011;40825;52.270;20.984;2023-09-19T00:17:54;13.90;;;8.10;;
54923;SDS011;40825;52.270;20.984;2023-09-19T00:20:20;14.80;;;8.30;;
54923;SDS011;40825;52.270;20.984;2023-09-19T00:22:48;15.10;;;9.00;;
54923;SDS011;40825;52.270;20.984;2023-09-19T00:25:19;15.10;;;8.80;;
54923;SDS011;40825;52.270;20.984;2023-09-19T00:27:45;16.30;;;8.50;;
54923;SDS011;40825;52.270;20.984;2023-09-19T00:30:13;13.40;;;8.30;;
54923;SDS011;40825;52.270;20.984;2023-09-19T00:32:45;12.90;;;7.50;;
54923;SDS011;40825;52.270;20.984;2023-09-19T00:35:13;16.90;;;9.30;;
54923;SDS011;40825;52.270;20.984;2023-09-19T00:37:41;15.10;;;8.30;;
54923;SDS011;40825;52.270;20.984;2023-09-19T00:40:08;13.80;;;8.90;;
54923;SDS011;40825;52.270;20.984;2023-09-19T00:42:41;16.10;;;8.80;;
54923;SDS011;40825;52.270;20.984;2023-09-19T00:45:11;13.60;;;8.30;;
54923;SDS011;40825;52.270;20.984;2023-09-19T00:47:38;12.30;;;8.10;;
54923;SDS011;40825;52.270;20.984;2023-09-19T00:50:06;13.90;;;8.80;;
54923;SDS011;40825;52.270;20.984;2023-09-19T00:52:34;15.70;;;8.60;;
54923;SDS011;40825;52.270;20.984;2023-09-19T00:55:07;16.40;;;9.70;;
54923;SDS011;40825;52.270;20.984;2023-09-19T00:57:34;14.00;;;8.70;;
54923;SDS011;40825;52.270;20.984;2023-09-19T01:00:00;12.60;;;8.00;;
54923;SDS011;40825;52.270;20.984;2023-09-19T01:02:31;13.80;;;8.40;;
54923;SDS011;40825;52.270;20.984;2023-09-19T01:04:57;14.70;;;8.80;;
54923;SDS011;40825;52.270;20.984;2023-09-19T01:07:24;14.50;;;8.40;;
54923;SDS011;40825;52.270;20.984;2023-09-19T01:09:49;15.60;;;9.10;;
54923;SDS011;40825;52.270;20.984;2023-09-19T01:12:16;14.50;;;8.30;;
54923;SDS011;40825;52.270;20.984;2023-09-19T01:14:59;15.50;;;9.00;;
54923;SDS011;40825;52.270;20.984;2023-09-19T01:17:40;14.80;;;9.60;;
54923;SDS011;40825;52.270;20.984;2023-09-19T01:25:42;16.00;;;8.90;;
54923;SDS011;40825;52.270;20.984;2023-09-19T01:30:58;15.20;;;8.20;;
54923;SDS011;40825;52.270;20.984;2023-09-19T01:33:26;13.60;;;9.20;;
54923;SDS011;40825;52.270;20.984;2023-09-19T01:35:52;14.20;;;9.10;;
54923;SDS011;40825;52.270;20.984;2023-09-19T01:38:23;16.70;;;9.20;;
54923;SDS011;40825;52.270;20.984;2023-09-19T01:40:54;15.60;;;8.90;;
54923;SDS011;40825;52.270;20.984;2023-09-19T01:43:41;14.50;;;8.90;;
54923;SDS011;40825;52.270;20.984;2023-09-19T01:51:41;12.90;;;8.40;;
54923;SDS011;40825;52.270;20.984;2023-09-19T01:54:19;14.50;;;9.10;;
54923;SDS011;40825;52.270;20.984;2023-09-19T01:56:57;15.70;;;9.30;;
54923;SDS011;40825;52.270;20.984;2023-09-19T01:59:31;13.70;;;8.60;;
54923;SDS011;40825;52.270;20.984;2023-09-19T02:02:03;14.50;;;9.00;;
54923;SDS011;40825;52.270;20.984;2023-09-19T02:04:32;14.00;;;8.40;;
54923;SDS011;40825;52.270;20.984;2023-09-19T02:09:26;14.80;;;8.40;;
54923;SDS011;40825;52.270;20.984;2023-09-19T02:11:52;14.10;;;8.70;;
54923;SDS011;40825;52.270;20.984;2023-09-19T02:14:17;13.70;;;8.60;;
54923;SDS011;40825;52.270;20.984;2023-09-19T02:16:44;14.80;;;8.90;;
54923;SDS011;40825;52.270;20.984;2023-09-19T02:19:11;13.60;;;8.10;;
54923;SDS011;40825;52.270;20.984;2023-09-19T02:21:36;14.70;;;8.70;;
54923;SDS011;40825;52.270;20.984;2023-09-19T02:24:02;13.40;;;7.80;;
54923;SDS011;40825;52.270;20.984;2023-09-19T02:26:28;15.10;;;9.20;;
54923;SDS011;40825;52.270;20.984;2023-09-19T02:28:53;12.80;;;8.70;;
54923;SDS011;40825;52.270;20.984;2023-09-19T02:31:19;14.90;;;8.70;;
54923;SDS011;40825;52.270;20.984;2023-09-19T02:33:45;15.70;;;8.70;;
54923;SDS011;40825;52.270;20.984;2023-09-19T02:36:11;16.50;;;8.80;;
54923;SDS011;40825;52.270;20.984;2023-09-19T02:38:36;15.80;;;9.40;;
54923;SDS011;40825;52.270;20.984;2023-09-19T02:41:02;14.30;;;9.00;;
54923;SDS011;40825;52.270;20.984;2023-09-19T02:43:28;17.20;;;9.50;;
54923;SDS011;40825;52.270;20.984;2023-09-19T02:45:53;14.70;;;8.90;;
54923;SDS011;40825;52.270;20.984;2023-09-19T02:48:19;13.00;;;8.30;;
54923;SDS011;40825;52.270;20.984;2023-09-19T02:50:45;13.90;;;8.90;;
54923;SDS011;40825;52.270;20.984;2023-09-19T02:53:11;15.30;;;8.80;;
54923;SDS011;40825;52.270;20.984;2023-09-19T02:55:40;15.00;;;8.50;;
54923;SDS011;40825;52.270;20.984;2023-09-19T02:58:05;14.40;;;8.80;;
54923;SDS011;40825;52.270;20.984;2023-09-19T03:00:36;15.90;;;8.80;;
54923;SDS011;40825;52.270;20.984;2023-09-19T03:03:02;14.00;;;8.40;;
54923;SDS011;40825;52.270;20.984;2023-09-19T03:05:30;15.40;;;9.80;;
54923;SDS011;40825;52.270;20.984;2023-09-19T03:07:57;16.90;;;9.80;;
54923;SDS011;40825;52.270;20.984;2023-09-19T03:10:26;16.10;;;9.10;;
54923;SDS011;40825;52.270;20.984;2023-09-19T03:12:53;14.60;;;9.10;;
54923;SDS011;40825;52.270;20.984;2023-09-19T03:15:19;15.60;;;8.90;;
54923;SDS011;40825;52.270;20.984;2023-09-19T03:17:45;14.00;;;9.10;;
54923;SDS011;40825;52.270;20.984;2023-09-19T03:20:12;14.50;;;8.70;;
54923;SDS011;40825;52.270;20.984;2023-09-19T03:22:42;14.20;;;8.60;;
54923;SDS011;40825;52.270;20.984;2023-09-19T03:25:08;13.40;;;8.40;;
54923;SDS011;40825;52.270;20.984;2023-09-19T03:27:35;14.60;;;8.90;;
54923;SDS011;40825;52.270;20.984;2023-09-19T03:30:00;16.60;;;10.00;;
54923;SDS011;40825;52.270;20.984;2023-09-19T03:32:30;14.20;;;9.10;;
54923;SDS011;40825;52.270;20.984;2023-09-19T03:34:56;15.60;;;9.30;;
54923;SDS011;40825;52.270;20.984;2023-09-19T03:37:21;16.50;;;10.20;;
54923;SDS011;40825;52.270;20.984;2023-09-19T03:39:47;15.80;;;10.80;;
54923;SDS011;40825;52.270;20.984;2023-09-19T03:42:12;14.40;;;9.30;;
54923;SDS011;40825;52.270;20.984;2023-09-19T03:44:37;17.00;;;9.70;;
54923;SDS011;40825;52.270;20.984;2023-09-19T03:47:03;15.40;;;9.10;;
54923;SDS011;40825;52.270;20.984;2023-09-19T03:49:30;15.10;;;9.70;;
54923;SDS011;40825;52.270;20.984;2023-09-19T03:51:55;16.40;;;9.50;;
54923;SDS011;40825;52.270;20.984;2023-09-19T03:54:21;16.10;;;9.10;;
54923;SDS011;40825;52.270;20.984;2023-09-19T03:56:46;15.90;;;9.40;;
54923;SDS011;40825;52.270;20.984;2023-09-19T03:59:12;16.20;;;9.70;;
54923;SDS011;40825;52.270;20.984;2023-09-19T04:01:37;13.90;;;7.90;;
54923;SDS011;40825;52.270;20.984;2023-09-19T04:04:04;13.90;;;8.60;;
54923;SDS011;40825;52.270;20.984;2023-09-19T04:06:36;13.80;;;9.50;;
54923;SDS011;40825;52.270;20.984;2023-09-19T04:09:02;15.80;;;8.90;;
54923;SDS011;40825;52.270;20.984;2023-09-19T04:11:29;17.20;;;9.50;;
54923;SDS011;40825;52.270;20.984;2023-09-19T04:13:55;13.80;;;9.10;;
54923;SDS011;40825;52.270;20.984;2023-09-19T04:16:21;15.10;;;8.80;;
54923;SDS011;40825;52.270;20.984;2023-09-19T04:18:47;13.70;;;8.50;;
54923;SDS011;40825;52.270;20.984;2023-09-19T04:21:12;16.20;;;8.60;;
54923;SDS011;40825;52.270;20.984;2023-09-19T04:23:38;16.50;;;9.80;;
54923;SDS011;40825;52.270;20.984;2023-09-19T04:26:03;18.80;;;8.80;;
54923;SDS011;40825;52.270;20.984;2023-09-19T04:28:30;13.40;;;8.40;;
54923;SDS011;40825;52.270;20.984;2023-09-19T04:30:56;15.70;;;8.70;;
54923;SDS011;40825;52.270;20.984;2023-09-19T04:33:23;14.40;;;8.80;;
54923;SDS011;40825;52.270;20.984;2023-09-19T04:35:51;14.30;;;8.30;;
54923;SDS011;40825;52.270;20.984;2023-09-19T04:38:17;16.10;;;10.30;;
54923;SDS011;40825;52.270;20.984;2023-09-19T04:40:47;14.30;;;9.20;;
54923;SDS011;40825;52.270;20.984;2023-09-19T04:43:12;14.50;;;8.40;;
54923;SDS011;40825;52.270;20.984;2023-09-19T04:45:38;13.80;;;8.20;;
54923;SDS011;40825;52.270;20.984;2023-09-19T04:48:05;13.50;;;8.70;;
54923;SDS011;40825;52.270;20.984;2023-09-19T04:50:34;13.50;;;8.60;;
54923;SDS011;40825;52.270;20.984;2023-09-19T04:53:00;14.10;;;8.30;;
54923;SDS011;40825;52.270;20.984;2023-09-19T04:55:26;14.20;;;8.30;;
54923;SDS011;40825;52.270;20.984;2023-09-19T04:57:52;14.60;;;8.30;;
54923;SDS011;40825;52.270;20.984;2023-09-19T05:00:22;14.00;;;8.40;;
54923;SDS011;40825;52.270;20.984;2023-09-19T05:02:52;14.50;;;8.40;;
54923;SDS011;40825;52.270;20.984;2023-09-19T05:05:24;14.70;;;8.30;;
54923;SDS011;40825;52.270;20.984;2023-09-19T05:07:51;13.80;;;8.10;;
54923;SDS011;40825;52.270;20.984;2023-09-19T05:10:18;15.50;;;8.20;;
54923;SDS011;40825;52.270;20.984;2023-09-19T05:12:44;15.50;;;8.90;;
54923;SDS011;40825;52.270;20.984;2023-09-19T05:15:12;14.00;;;8.10;;
54923;SDS011;40825;52.270;20.984;2023-09-19T05:17:40;13.00;;;8.20;;
54923;SDS011;40825;52.270;20.984;2023-09-19T05:20:06;13.10;;;7.80;;
54923;SDS011;40825;52.270;20.984;2023-09-19T05:22:42;14.20;;;8.10;;
54923;SDS011;40825;52.270;20.984;2023-09-19T05:25:09;14.10;;;8.60;;
54923;SDS011;40825;52.270;20.984;2023-09-19T05:27:35;14.30;;;7.80;;
54923;SDS011;40825;52.270;20.984;2023-09-19T05:30:00;13.20;;;7.90;;
54923;SDS011;40825;52.270;20.984;2023-09-19T05:32:26;13.50;;;7.80;;
54923;SDS011;40825;52.270;20.984;2023-09-19T05:34:51;17.80;;;8.70;;
54923;SDS011;40825;52.270;20.984;2023-09-19T05:37:19;16.00;;;9.10;;
54923;SDS011;40825;52.270;20.984;2023-09-19T05:39:44;16.60;;;8.10;;
54923;SDS011;40825;52.270;20.984;2023-09-19T05:42:10;14.30;;;9.20;;
54923;SDS011;40825;52.270;20.984;2023-09-19T05:44:35;13.70;;;7.80;;
54923;SDS011;40825;52.270;20.984;2023-09-19T05:47:02;13.90;;;8.40;;
54923;SDS011;40825;52.270;20.984;2023-09-19T05:49:28;13.00;;;7.70;;
54923;SDS011;40825;52.270;20.984;2023-09-19T05:51:53;13.90;;;8.40;;
54923;SDS011;40825;52.270;20.984;2023-09-19T05:54:20;14.30;;;8.00;;
54923;SDS011;40825;52.270;20.984;2023-09-19T05:56:45;14.30;;;8.30;;
54923;SDS011;40825;52.270;20.984;2023-09-19T05:59:12;17.80;;;7.90;;
54923;SDS011;40825;52.270;20.984;2023-09-19T06:01:41;13.20;;;7.90;;
54923;SDS011;40825;52.270;20.984;2023-09-19T06:04:07;22.30;;;13.00;;
54923;SDS011;40825;52.270;20.984;2023-09-19T06:06:33;15.70;;;8.60;;
54923;SDS011;40825;52.270;20.984;2023-09-19T06:09:02;13.10;;;7.40;;
54923;SDS011;40825;52.270;20.984;2023-09-19T06:11:27;14.10;;;7.90;;
54923;SDS011;40825;52.270;20.984;2023-09-19T06:13:54;14.40;;;8.00;;
54923;SDS011;40825;52.270;20.984;2023-09-19T06:16:19;15.10;;;7.90;;
54923;SDS011;40825;52.270;20.984;2023-09-19T06:18:45;16.60;;;8.70;;
54923;SDS011;40825;52.270;20.984;2023-09-19T06:21:10;13.30;;;7.90;;
54923;SDS011;40825;52.270;20.984;2023-09-19T06:23:39;13.60;;;7.60;;
54923;SDS011;40825;52.270;20.984;2023-09-19T06:26:04;15.70;;;8.20;;
54923;SDS011;40825;52.270;20.984;2023-09-19T06:28:32;13.20;;;8.00;;
54923;SDS011;40825;52.270;20.984;2023-09-19T06:30:58;14.40;;;8.40;;
54923;SDS011;40825;52.270;20.984;2023-09-19T06:33:24;14.80;;;8.20;;
54923;SDS011;40825;52.270;20.984;2023-09-19T06:35:50;15.20;;;8.80;;
54923;SDS011;40825;52.270;20.984;2023-09-19T06:40:44;12.20;;;7.40;;
54923;SDS011;40825;52.270;20.984;2023-09-19T06:43:10;17.60;;;7.90;;
54923;SDS011;40825;52.270;20.984;2023-09-19T06:45:36;17.60;;;9.10;;
54923;SDS011;40825;52.270;20.984;2023-09-19T06:48:01;16.10;;;8.40;;
54923;SDS011;40825;52.270;20.984;2023-09-19T06:50:28;15.70;;;8.30;;
54923;SDS011;40825;52.270;20.984;2023-09-19T06:52:56;16.20;;;8.80;;
54923;SDS011;40825;52.270;20.984;2023-09-19T06:55:24;12.80;;;7.50;;
54923;SDS011;40825;52.270;20.984;2023-09-19T06:57:53;17.10;;;8.90;;
54923;SDS011;40825;52.270;20.984;2023-09-19T07:00:19;12.70;;;8.50;;
54923;SDS011;40825;52.270;20.984;2023-09-19T07:05:21;13.30;;;8.30;;
54923;SDS011;40825;52.270;20.984;2023-09-19T07:07:47;27.20;;;10.40;;
54923;SDS011;40825;52.270;20.984;2023-09-19T07:10:12;16.00;;;9.40;;
54923;SDS011;40825;52.270;20.984;2023-09-19T07:12:38;15.60;;;8.80;;
54923;SDS011;40825;52.270;20.984;2023-09-19T07:15:03;12.70;;;8.20;;
54923;SDS011;40825;52.270;20.984;2023-09-19T07:17:31;17.00;;;9.40;;
54923;SDS011;40825;52.270;20.984;2023-09-19T07:19:58;14.60;;;8.40;;
54923;SDS011;40825;52.270;20.984;2023-09-19T07:22:24;16.90;;;9.50;;
54923;SDS011;40825;52.270;20.984;2023-09-19T07:24:51;15.70;;;9.20;;
54923;SDS011;40825;52.270;20.984;2023-09-19T07:27:17;15.10;;;9.60;;
54923;SDS011;40825;52.270;20.984;2023-09-19T07:29:42;15.80;;;9.00;;
54923;SDS011;40825;52.270;20.984;2023-09-19T07:32:08;14.40;;;9.30;;
54923;SDS011;40825;52.270;20.984;2023-09-19T07:34:35;16.90;;;9.40;;
54923;SDS011;40825;52.270;20.984;2023-09-19T07:37:00;13.00;;;8.90;;
54923;SDS011;40825;52.270;20.984;2023-09-19T07:39:27;14.10;;;9.60;;
54923;SDS011;40825;52.270;20.984;2023-09-19T07:41:53;14.00;;;8.70;;
54923;SDS011;40825;52.270;20.984;2023-09-19T07:44:19;16.70;;;10.30;;
54923;SDS011;40825;52.270;20.984;2023-09-19T07:46:45;14.30;;;9.50;;
54923;SDS011;40825;52.270;20.984;2023-09-19T07:49:10;16.10;;;10.70;;
54923;SDS011;40825;52.270;20.984;2023-09-19T07:51:36;13.80;;;9.50;;
54923;SDS011;40825;52.270;20.984;2023-09-19T07:54:01;17.30;;;10.00;;
54923;SDS011;40825;52.270;20.984;2023-09-19T07:56:27;16.10;;;9.80;;
54923;SDS011;40825;52.270;20.984;2023-09-19T07:58:53;14.80;;;10.40;;
54923;SDS011;40825;52.270;20.984;2023-09-19T08:01:18;16.00;;;10.40;;
54923;SDS011;40825;52.270;20.984;2023-09-19T08:03:44;15.60;;;10.40;;
54923;SDS011;40825;52.270;20.984;2023-09-19T08:06:10;15.50;;;10.50;;
54923;SDS011;40825;52.270;20.984;2023-09-19T08:08:36;14.40;;;9.30;;
54923;SDS011;40825;52.270;20.984;2023-09-19T08:11:03;17.30;;;10.40;;
54923;SDS011;40825;52.270;20.984;2023-09-19T08:13:36;15.60;;;10.00;;
54923;SDS011;40825;52.270;20.984;2023-09-19T08:16:05;16.40;;;9.40;;
54923;SDS011;40825;52.270;20.984;2023-09-19T08:18:31;15.90;;;10.80;;
54923;SDS011;40825;52.270;20.984;2023-09-19T08:20:56;14.50;;;10.30;;
54923;SDS011;40825;52.270;20.984;2023-09-19T08:23:23;16.90;;;10.80;;
54923;SDS011;40825;52.270;20.984;2023-09-19T08:25:49;17.20;;;10.00;;
54923;SDS011;40825;52.270;20.984;2023-09-19T08:28:15;13.90;;;10.00;;
54923;SDS011;40825;52.270;20.984;2023-09-19T08:30:44;14.90;;;10.10;;
54923;SDS011;40825;52.270;20.984;2023-09-19T08:33:11;14.50;;;10.50;;
54923;SDS011;40825;52.270;20.984;2023-09-19T08:35:36;14.80;;;10.40;;
54923;SDS011;40825;52.270;20.984;2023-09-19T08:38:04;16.40;;;9.70;;
54923;SDS011;40825;52.270;20.984;2023-09-19T08:40:31;14.90;;;9.30;;
54923;SDS011;40825;52.270;20.984;2023-09-19T08:42:59;12.80;;;9.40;;
54923;SDS011;40825;52.270;20.984;2023-09-19T08:45:26;16.30;;;8.40;;
54923;SDS011;40825;52.270;20.984;2023-09-19T08:50:53;13.40;;;8.40;;
54923;SDS011;40825;52.270;20.984;2023-09-19T08:53:26;13.10;;;8.20;;
54923;SDS011;40825;52.270;20.984;2023-09-19T08:55:57;14.70;;;8.50;;
54923;SDS011;40825;52.270;20.984;2023-09-19T08:58:28;13.30;;;8.90;;
54923;SDS011;40825;52.270;20.984;2023-09-19T09:01:00;13.60;;;8.40;;
54923;SDS011;40825;52.270;20.984;2023-09-19T09:03:26;15.10;;;8.40;;
54923;SDS011;40825;52.270;20.984;2023-09-19T09:05:57;13.60;;;7.60;;
54923;SDS011;40825;52.270;20.984;2023-09-19T09:08:23;12.20;;;7.60;;
54923;SDS011;40825;52.270;20.984;2023-09-19T09:10:50;11.00;;;7.20;;
54923;SDS011;40825;52.270;20.984;2023-09-19T09:13:16;13.30;;;8.30;;
54923;SDS011;40825;52.270;20.984;2023-09-19T09:15:42;14.00;;;7.70;;
54923;SDS011;40825;52.270;20.984;2023-09-19T09:18:10;14.00;;;7.10;;
54923;SDS011;40825;52.270;20.984;2023-09-19T09:20:35;14.20;;;8.20;;
54923;SDS011;40825;52.270;20.984;2023-09-19T09:23:01;13.70;;;7.10;;
54923;SDS011;40825;52.270;20.984;2023-09-19T09:28:20;13.00;;;7.00;;
54923;SDS011;40825;52.270;20.984;2023-09-19T09:30:47;12.30;;;6.90;;
54923;SDS011;40825;52.270;20.984;2023-09-19T09:33:13;16.00;;;9.00;;
54923;SDS011;40825;52.270;20.984;2023-09-19T09:38:22;14.10;;;7.60;;
54923;SDS011;40825;52.270;20.984;2023-09-19T09:40:58;13.20;;;7.40;;
54923;SDS011;40825;52.270;20.984;2023-09-19T09:43:32;17.30;;;10.60;;
54923;SDS011;40825;52.270;20.984;2023-09-19T09:46:16;14.20;;;8.10;;
54923;SDS011;40825;52.270;20.984;2023-09-19T09:49:01;12.50;;;8.30;;
54923;SDS011;40825;52.270;20.984;2023-09-19T09:52:04;16.60;;;8.70;;
54923;SDS011;40825;52.270;20.984;2023-09-19T09:54:58;16.90;;;8.20;;
54923;SDS011;40825;52.270;20.984;2023-09-19T09:57:25;14.30;;;8.50;;
54923;SDS011;40825;52.270;20.984;2023-09-19T09:59:51;13.50;;;7.30;;
54923;SDS011;40825;52.270;20.984;2023-09-19T10:02:41;13.20;;;7.50;;
54923;SDS011;40825;52.270;20.984;2023-09-19T10:05:17;14.40;;;8.30;;
54923;SDS011;40825;52.270;20.984;2023-09-19T10:07:53;14.70;;;8.30;;
54923;SDS011;40825;52.270;20.984;2023-09-19T10:10:37;15.80;;;7.70;;
54923;SDS011;40825;52.270;20.984;2023-09-19T10:13:07;13.60;;;8.00;;
54923;SDS011;40825;52.270;20.984;2023-09-19T10:15:37;12.90;;;8.10;;
54923;SDS011;40825;52.270;20.984;2023-09-19T10:18:06;12.60;;;7.80;;
54923;SDS011;40825;52.270;20.984;2023-09-19T10:20:36;13.90;;;8.40;;
54923;SDS011;40825;52.270;20.984;2023-09-19T10:23:05;14.00;;;8.40;;
54923;SDS011;40825;52.270;20.984;2023-09-19T10:25:38;14.60;;;9.00;;
54923;SDS011;40825;52.270;20.984;2023-09-19T10:28:08;15.30;;;8.50;;
54923;SDS011;40825;52.270;20.984;2023-09-19T10:30:45;12.90;;;8.20;;
54923;SDS011;40825;52.270;20.984;2023-09-19T10:33:15;13.70;;;8.50;;
54923;SDS011;40825;52.270;20.984;2023-09-19T10:35:46;12.40;;;7.40;;
54923;SDS011;40825;52.270;20.984;2023-09-19T10:38:14;10.70;;;6.70;;
54923;SDS011;40825;52.270;20.984;2023-09-19T10:40:48;13.80;;;7.20;;
54923;SDS011;40825;52.270;20.984;2023-09-19T10:43:17;12.20;;;6.60;;
54923;SDS011;40825;52.270;20.984;2023-09-19T10:45:44;11.50;;;7.80;;
54923;SDS011;40825;52.270;20.984;2023-09-19T10:48:12;11.10;;;6.80;;
54923;SDS011;40825;52.270;20.984;2023-09-19T10:50:51;12.70;;;7.60;;
54923;SDS011;40825;52.270;20.984;2023-09-19T10:53:24;12.20;;;6.10;;
54923;SDS011;40825;52.270;20.984;2023-09-19T10:55:56;10.90;;;6.00;;
54923;SDS011;40825;52.270;20.984;2023-09-19T10:58:28;10.20;;;5.40;;
54923;SDS011;40825;52.270;20.984;2023-09-19T11:00:56;9.90;;;5.50;;
54923;SDS011;40825;52.270;20.984;2023-09-19T11:03:37;9.20;;;4.70;;
54923;SDS011;40825;52.270;20.984;2023-09-19T11:06:12;10.50;;;4.60;;
54923;SDS011;40825;52.270;20.984;2023-09-19T11:26:04;12.20;;;7.30;;
54923;SDS011;40825;52.270;20.984;2023-09-19T11:30:50;9.80;;;4.60;;
54923;SDS011;40825;52.270;20.984;2023-09-19T11:33:21;11.60;;;5.00;;
54923;SDS011;40825;52.270;20.984;2023-09-19T11:46:25;7.80;;;4.30;;
54923;SDS011;40825;52.270;20.984;2023-09-19T11:48:53;10.20;;;4.80;;
54923;SDS011;40825;52.270;20.984;2023-09-19T11:51:20;7.90;;;4.70;;
54923;SDS011;40825;52.270;20.984;2023-09-19T11:53:53;10.40;;;4.70;;
54923;SDS011;40825;52.270;20.984;2023-09-19T11:56:24;10.10;;;5.60;;
54923;SDS011;40825;52.270;20.984;2023-09-19T11:58:53;11.10;;;5.70;;
54923;SDS011;40825;52.270;20.984;2023-09-19T12:01:21;10.00;;;6.00;;
54923;SDS011;40825;52.270;20.984;2023-09-19T12:04:00;10.50;;;5.50;;
54923;SDS011;40825;52.270;20.984;2023-09-19T12:06:29;10.90;;;5.60;;
54923;SDS011;40825;52.270;20.984;2023-09-19T12:08:57;9.40;;;5.30;;
54923;SDS011;40825;52.270;20.984;2023-09-19T12:11:29;12.20;;;6.10;;
54923;SDS011;40825;52.270;20.984;2023-09-19T12:13:58;10.70;;;6.40;;
54923;SDS011;40825;52.270;20.984;2023-09-19T12:16:26;11.30;;;5.70;;
54923;SDS011;40825;52.270;20.984;2023-09-19T12:18:55;11.40;;;6.80;;
54923;SDS011;40825;52.270;20.984;2023-09-19T12:21:23;12.40;;;7.20;;
54923;SDS011;40825;52.270;20.984;2023-09-19T12:26:26;11.60;;;6.50;;
54923;SDS011;40825;52.270;20.984;2023-09-19T12:28:54;16.20;;;7.50;;
54923;SDS011;40825;52.270;20.984;2023-09-19T12:31:21;12.90;;;7.90;;
54923;SDS011;40825;52.270;20.984;2023-09-19T12:33:52;12.70;;;6.50;;
54923;SDS011;40825;52.270;20.984;2023-09-19T12:36:22;13.60;;;6.60;;
54923;SDS011;40825;52.270;20.984;2023-09-19T12:38:54;14.20;;;8.20;;
54923;SDS011;40825;52.270;20.984;2023-09-19T12:41:21;19.10;;;9.60;;
54923;SDS011;40825;52.270;20.984;2023-09-19T12:43:47;14.30;;;7.80;;
54923;SDS011;40825;52.270;20.984;2023-09-19T12:46:13;10.80;;;7.00;;
54923;SDS011;40825;52.270;20.984;2023-09-19T12:48:40;13.70;;;6.90;;
54923;SDS011;40825;52.270;20.984;2023-09-19T12:51:09;13.50;;;6.60;;
54923;SDS011;40825;52.270;20.984;2023-09-19T12:53:44;13.50;;;7.20;;
54923;SDS011;40825;52.270;20.984;2023-09-19T12:56:14;13.20;;;7.70;;
54923;SDS011;40825;52.270;20.984;2023-09-19T12:58:57;18.10;;;9.60;;
54923;SDS011;40825;52.270;20.984;2023-09-19T13:01:28;12.80;;;9.10;;
54923;SDS011;40825;52.270;20.984;2023-09-19T13:06:58;15.30;;;8.10;;
54923;SDS011;40825;52.270;20.984;2023-09-19T13:09:27;14.60;;;8.20;;
54923;SDS011;40825;52.270;20.984;2023-09-19T13:12:04;12.40;;;7.40;;
54923;SDS011;40825;52.270;20.984;2023-09-19T13:14:32;12.50;;;7.50;;
54923;SDS011;40825;52.270;20.984;2023-09-19T13:17:03;11.00;;;6.80;;
54923;SDS011;40825;52.270;20.984;2023-09-19T13:19:49;12.70;;;7.50;;
54923;SDS011;40825;52.270;20.984;2023-09-19T13:22:36;15.60;;;7.30;;
54923;SDS011;40825;52.270;20.984;2023-09-19T13:25:09;16.90;;;6.90;;
54923;SDS011;40825;52.270;20.984;2023-09-19T13:27:43;12.70;;;7.00;;
54923;SDS011;40825;52.270;20.984;2023-09-19T13:30:10;11.20;;;6.80;;
54923;SDS011;40825;52.270;20.984;2023-09-19T13:32:37;12.10;;;6.70;;
54923;SDS011;40825;52.270;20.984;2023-09-19T13:35:05;11.40;;;7.50;;
54923;SDS011;40825;52.270;20.984;2023-09-19T13:37:34;11.90;;;6.90;;
54923;SDS011;40825;52.270;20.984;2023-09-19T13:40:15;11.90;;;6.70;;
54923;SDS011;40825;52.270;20.984;2023-09-19T13:42:41;12.60;;;7.20;;
54923;SDS011;40825;52.270;20.984;2023-09-19T13:45:07;13.60;;;7.60;;
54923;SDS011;40825;52.270;20.984;2023-09-19T13:47:37;14.20;;;8.40;;
54923;SDS011;40825;52.270;20.984;2023-09-19T13:50:03;11.40;;;7.60;;
54923;SDS011;40825;52.270;20.984;2023-09-19T13:52:30;15.30;;;8.60;;
54923;SDS011;40825;52.270;20.984;2023-09-19T13:54:57;11.50;;;7.20;;
54923;SDS011;40825;52.270;20.984;2023-09-19T13:57:23;13.50;;;8.30;;
54923;SDS011;40825;52.270;20.984;2023-09-19T13:59:50;13.10;;;7.50;;
54923;SDS011;40825;52.270;20.984;2023-09-19T14:02:16;16.30;;;8.90;;
54923;SDS011;40825;52.270;20.984;2023-09-19T14:04:43;14.10;;;7.80;;
54923;SDS011;40825;52.270;20.984;2023-09-19T14:07:09;15.80;;;8.90;;
54923;SDS011;40825;52.270;20.984;2023-09-19T14:09:36;13.00;;;8.10;;
54923;SDS011;40825;52.270;20.984;2023-09-19T14:12:02;11.90;;;7.90;;
54923;SDS011;40825;52.270;20.984;2023-09-19T14:14:28;12.50;;;8.40;;
54923;SDS011;40825;52.270;20.984;2023-09-19T14:16:53;16.20;;;9.70;;
54923;SDS011;40825;52.270;20.984;2023-09-19T14:19:19;13.30;;;7.60;;
54923;SDS011;40825;52.270;20.984;2023-09-19T14:21:44;14.50;;;8.90;;
54923;SDS011;40825;52.270;20.984;2023-09-19T14:24:10;12.00;;;8.20;;
54923;SDS011;40825;52.270;20.984;2023-09-19T14:26:39;14.50;;;8.60;;
54923;SDS011;40825;52.270;20.984;2023-09-19T14:29:05;14.40;;;8.20;;
54923;SDS011;40825;52.270;20.984;2023-09-19T14:31:33;10.70;;;7.10;;
54923;SDS011;40825;52.270;20.984;2023-09-19T14:33:59;11.40;;;7.40;;
54923;SDS011;40825;52.270;20.984;2023-09-19T14:36:24;12.70;;;7.80;;
54923;SDS011;40825;52.270;20.984;2023-09-19T14:38:54;12.30;;;6.70;;
54923;SDS011;40825;52.270;20.984;2023-09-19T14:41:21;13.80;;;6.70;;
54923;SDS011;40825;52.270;20.984;2023-09-19T14:43:48;11.20;;;6.30;;
54923;SDS011;40825;52.270;20.984;2023-09-19T14:46:14;10.50;;;6.20;;
54923;SDS011;40825;52.270;20.984;2023-09-19T14:48:41;11.50;;;6.40;;
54923;SDS011;40825;52.270;20.984;2023-09-19T14:51:07;9.60;;;5.80;;
54923;SDS011;40825;52.270;20.984;2023-09-19T14:53:34;10.10;;;6.30;;
54923;SDS011;40825;52.270;20.984;2023-09-19T14:56:03;10.10;;;5.50;;
54923;SDS011;40825;52.270;20.984;2023-09-19T14:58:30;11.00;;;6.00;;
54923;SDS011;40825;52.270;20.984;2023-09-19T15:01:03;9.00;;;5.60;;
54923;SDS011;40825;52.270;20.984;2023-09-19T15:03:35;8.50;;;5.70;;
54923;SDS011;40825;52.270;20.984;2023-09-19T15:06:05;10.20;;;6.20;;
54923;SDS011;40825;52.270;20.984;2023-09-19T15:08:32;7.90;;;4.70;;
54923;SDS011;40825;52.270;20.984;2023-09-19T15:11:03;7.90;;;4.90;;
54923;SDS011;40825;52.270;20.984;2023-09-19T15:13:31;8.30;;;5.10;;
54923;SDS011;40825;52.270;20.984;2023-09-19T15:16:00;9.00;;;5.10;;
54923;SDS011;40825;52.270;20.984;2023-09-19T15:18:27;9.30;;;5.00;;
54923;SDS011;40825;52.270;20.984;2023-09-19T15:20:55;8.10;;;4.50;;
54923;SDS011;40825;52.270;20.984;2023-09-19T15:23:20;8.80;;;4.60;;
54923;SDS011;40825;52.270;20.984;2023-09-19T15:25:49;7.10;;;4.00;;
54923;SDS011;40825;52.270;20.984;2023-09-19T15:28:15;7.10;;;4.00;;
54923;SDS011;40825;52.270;20.984;2023-09-19T15:30:41;8.10;;;4.90;;
54923;SDS011;40825;52.270;20.984;2023-09-19T15:33:06;10.40;;;5.00;;